createdAt,value
2017-06-24T00:00:02.720Z,100614.62
2017-06-24T00:02:31.183Z,100622.74
2017-06-24T00:04:59.561Z,100621.98
2017-06-24T00:07:28.098Z,100619.69
2017-06-24T00:09:56.477Z,100622.72
2017-06-24T00:12:24.853Z,100617.81
2017-06-24T00:14:53.254Z,100627.69
2017-06-24T00:17:22.351Z,100636.94
2017-06-24T00:19:51.148Z,100633.94
2017-06-24T00:22:19.880Z,100642.92
2017-06-24T00:24:48.492Z,100637.82
2017-06-24T00:27:16.872Z,100637.09
2017-06-24T00:29:45.265Z,100630.18
2017-06-24T00:32:13.685Z,100628.49
2017-06-24T00:34:42.123Z,100622.23
2017-06-24T00:37:10.916Z,100627.52
2017-06-24T00:39:39.300Z,100628.88
2017-06-24T00:42:09.000Z,100633.23
2017-06-24T00:44:37.575Z,100646.33
2017-06-24T00:47:05.960Z,100634.19
2017-06-24T00:49:34.360Z,100631.98
2017-06-24T00:52:03.136Z,100639.16
2017-06-24T00:54:31.924Z,100635.83
2017-06-24T00:57:00.710Z,100630.44
2017-06-24T00:59:29.292Z,100635.66
2017-06-24T01:01:57.681Z,100627.50
2017-06-24T01:04:26.464Z,100622.16
2017-06-24T01:06:55.261Z,100626.03
2017-06-24T01:09:24.041Z,100625.97
2017-06-24T01:11:52.441Z,100631.85
2017-06-24T01:14:20.838Z,100625.67
2017-06-24T01:16:50.085Z,100615.80
2017-06-24T01:19:18.464Z,100617.21
2017-06-24T01:21:46.845Z,100616.78
2017-06-24T01:24:15.676Z,100622.03
2017-06-24T01:26:44.062Z,100625.05
2017-06-24T01:29:12.508Z,100624.88
2017-06-24T01:31:40.897Z,100627.55
2017-06-24T01:34:09.984Z,100625.84
2017-06-24T01:36:38.414Z,100615.61
2017-06-24T01:39:06.807Z,100607.89
2017-06-24T01:41:35.223Z,100617.02
2017-06-24T01:44:03.613Z,100611.20
2017-06-24T01:46:32.089Z,100614.45
2017-06-24T01:49:00.476Z,100609.68
2017-06-24T01:51:29.280Z,100608.12
2017-06-24T01:53:57.672Z,100604.83
2017-06-24T01:56:26.080Z,100604.41
2017-06-24T01:58:54.465Z,100599.02
2017-06-24T02:01:23.186Z,100595.38
2017-06-24T02:03:51.563Z,100595.40
2017-06-24T02:06:19.944Z,100594.67
2017-06-24T02:08:48.345Z,100591.64
2017-06-24T02:11:16.736Z,100597.47
2017-06-24T02:13:45.140Z,100597.59
2017-06-24T02:16:13.526Z,100598.73
2017-06-24T02:18:42.253Z,100599.37
2017-06-24T02:21:11.242Z,100599.25
2017-06-24T02:23:39.628Z,100601.58
2017-06-24T02:26:08.544Z,100600.53
2017-06-24T02:28:36.923Z,100606.16
2017-06-24T02:31:05.325Z,100598.94
2017-06-24T02:33:33.705Z,100596.87
2017-06-24T02:36:02.264Z,100599.08
2017-06-24T02:38:30.661Z,100593.19
2017-06-24T02:40:59.053Z,100596.08
2017-06-24T02:43:27.457Z,100591.64
2017-06-24T02:45:56.084Z,100588.42
2017-06-24T02:48:24.868Z,100592.46
2017-06-24T02:50:53.644Z,100585.89
2017-06-24T02:53:22.644Z,100585.23
2017-06-24T02:55:52.602Z,100598.77
2017-06-24T02:58:22.089Z,100605.53
2017-06-24T03:00:50.496Z,100598.50
2017-06-24T03:03:19.140Z,100586.69
2017-06-24T03:05:47.932Z,100591.99
2017-06-24T03:08:16.711Z,100600.50
2017-06-24T03:10:46.016Z,100601.61
2017-06-24T03:13:14.798Z,100600.94
2017-06-24T03:15:43.576Z,100597.67
2017-06-24T03:18:11.980Z,100597.00
2017-06-24T03:20:40.762Z,100596.58
2017-06-24T03:23:09.661Z,100600.61
2017-06-24T03:25:38.439Z,100597.73
2017-06-24T03:28:07.321Z,100589.78
2017-06-24T03:30:36.026Z,100595.47
2017-06-24T03:33:05.100Z,100598.39
2017-06-24T03:35:33.680Z,100594.13
2017-06-24T03:38:02.064Z,100596.73
2017-06-24T03:40:30.458Z,100595.39
2017-06-24T03:42:59.241Z,100595.81
2017-06-24T03:45:27.859Z,100601.57
2017-06-24T03:47:56.252Z,100599.06
2017-06-24T03:50:24.889Z,100603.47
2017-06-24T03:52:53.268Z,100594.68
2017-06-24T03:55:21.652Z,100591.35
2017-06-24T03:57:50.048Z,100599.19
2017-06-24T04:00:19.329Z,100596.37
2017-06-24T04:02:47.727Z,100606.22
2017-06-24T04:05:16.500Z,100607.67
2017-06-24T04:07:45.080Z,100609.02
2017-06-24T04:10:13.470Z,100600.54
2017-06-24T04:12:42.244Z,100611.55
2017-06-24T04:15:10.636Z,100615.23
2017-06-24T04:17:39.408Z,100614.67
2017-06-24T04:20:07.905Z,100609.53
2017-06-24T04:22:36.292Z,100612.72
2017-06-24T04:25:04.692Z,100616.66
2017-06-24T04:27:33.072Z,100614.61
2017-06-24T04:30:01.467Z,100620.06
2017-06-24T04:32:29.856Z,100627.16
2017-06-24T04:34:58.596Z,100619.94
2017-06-24T04:37:27.375Z,100615.23
2017-06-24T04:39:55.752Z,100613.20
2017-06-24T04:42:24.149Z,100611.71
2017-06-24T04:44:52.929Z,100619.79
2017-06-24T04:47:21.354Z,100617.85
2017-06-24T04:49:49.740Z,100613.87
2017-06-24T04:52:18.268Z,100612.53
2017-06-24T04:54:46.649Z,100606.59
2017-06-24T04:57:15.033Z,100613.39
2017-06-24T04:59:43.460Z,100607.20
2017-06-24T05:02:11.836Z,100604.68
2017-06-24T05:04:40.237Z,100605.16
2017-06-24T05:07:08.617Z,100602.73
2017-06-24T05:09:37.024Z,100592.20
2017-06-24T05:12:05.442Z,100595.25
2017-06-24T05:14:33.953Z,100604.64
2017-06-24T05:17:02.352Z,100602.50
2017-06-24T05:19:30.732Z,100599.25
2017-06-24T05:21:59.128Z,100600.23
2017-06-24T05:24:27.512Z,100600.72
2017-06-24T05:26:56.097Z,100596.09
2017-06-24T05:29:24.477Z,100597.92
2017-06-24T05:31:52.861Z,100597.10
2017-06-24T05:34:21.660Z,100603.19
2017-06-24T05:36:50.436Z,100599.95
2017-06-24T05:39:19.544Z,100592.27
2017-06-24T05:41:48.316Z,100592.96
2017-06-24T05:44:16.712Z,100589.63
2017-06-24T05:46:45.492Z,100580.88
2017-06-24T05:49:14.686Z,100587.13
2017-06-24T05:51:43.480Z,100592.59
2017-06-24T05:54:12.259Z,100590.00
2017-06-24T05:56:40.661Z,100590.72
2017-06-24T05:59:10.020Z,100596.17
2017-06-24T06:01:38.411Z,100596.85
2017-06-24T06:04:06.789Z,100592.07
2017-06-24T06:06:35.197Z,100590.93
2017-06-24T06:09:03.992Z,100581.27
2017-06-24T06:11:32.713Z,100579.68
2017-06-24T06:14:01.097Z,100580.20
2017-06-24T06:16:29.480Z,100582.92
2017-06-24T06:18:57.954Z,100587.62
2017-06-24T06:21:26.339Z,100582.84
2017-06-24T06:23:54.740Z,100579.73
2017-06-24T06:26:23.129Z,100583.38
2017-06-24T06:28:51.540Z,100585.47
2017-06-24T06:31:20.315Z,100587.77
2017-06-24T06:33:48.891Z,100591.95
2017-06-24T06:36:17.269Z,100589.55
2017-06-24T06:38:45.648Z,100593.16
2017-06-24T06:41:14.853Z,100594.78
2017-06-24T06:43:43.243Z,100594.27
2017-06-24T06:46:12.229Z,100587.25
2017-06-24T06:48:40.716Z,100572.52
2017-06-24T06:51:09.501Z,100578.05
2017-06-24T06:53:37.892Z,100575.63
2017-06-24T06:56:06.672Z,100584.81
2017-06-24T06:58:35.072Z,100577.98
2017-06-24T07:01:04.144Z,100579.70
2017-06-24T07:03:32.535Z,100564.67
2017-06-24T07:06:01.316Z,100573.16
2017-06-24T07:08:29.894Z,100579.22
2017-06-24T07:10:58.280Z,100586.23
2017-06-24T07:13:26.660Z,100589.17
2017-06-24T07:15:55.057Z,100585.90
2017-06-24T07:18:23.828Z,100583.35
2017-06-24T07:20:52.632Z,100593.00
2017-06-24T07:23:21.413Z,100586.70
2017-06-24T07:25:50.321Z,100584.46
2017-06-24T07:28:18.778Z,100585.14
2017-06-24T07:30:47.585Z,100583.47
2017-06-24T07:33:16.877Z,100581.41
2017-06-24T07:35:45.670Z,100583.45
2017-06-24T07:38:14.467Z,100590.02
2017-06-24T07:40:43.243Z,100592.85
2017-06-24T07:43:12.894Z,100585.73
2017-06-24T07:45:41.288Z,100586.69
2017-06-24T07:48:09.926Z,100585.16
2017-06-24T07:50:38.707Z,100583.55
2017-06-24T07:53:07.704Z,100584.88
2017-06-24T07:55:36.484Z,100581.00
2017-06-24T07:58:04.865Z,100577.33
2017-06-24T08:00:33.259Z,100568.59
2017-06-24T08:03:02.210Z,100573.34
2017-06-24T08:05:30.729Z,100569.61
2017-06-24T08:07:59.612Z,100570.78
2017-06-24T08:10:28.192Z,100575.77
2017-06-24T08:12:56.680Z,100566.37
2017-06-24T08:15:25.459Z,100565.84
2017-06-24T08:17:53.852Z,100563.55
2017-06-24T08:20:23.061Z,100563.02
2017-06-24T08:22:51.855Z,100561.52
2017-06-24T08:25:20.952Z,100559.46
2017-06-24T08:39:50.150Z,100560.60
2017-06-24T08:42:18.528Z,100560.95
2017-06-24T08:44:47.066Z,100558.43
2017-06-24T08:47:15.547Z,100564.55
2017-06-24T08:49:43.979Z,100568.06
2017-06-24T08:52:13.155Z,100552.44
2017-06-24T08:54:41.532Z,100560.79
2017-06-24T08:57:10.313Z,100551.09
2017-06-24T08:59:39.281Z,100554.64
2017-06-24T09:02:07.984Z,100556.75
2017-06-24T09:04:36.755Z,100558.19
2017-06-24T09:07:05.136Z,100545.58
2017-06-24T09:09:33.575Z,100542.64
2017-06-24T09:12:01.955Z,100539.92
2017-06-24T09:14:30.352Z,100535.23
2017-06-24T09:16:58.743Z,100538.22
2017-06-24T09:19:27.860Z,100536.77
2017-06-24T09:21:56.242Z,100528.39
2017-06-24T09:24:24.615Z,100537.61
2017-06-24T09:26:53.020Z,100532.31
2017-06-24T09:29:21.795Z,100537.82
2017-06-24T09:31:50.267Z,100535.92
2017-06-24T09:34:18.643Z,100536.94
2017-06-24T09:36:47.147Z,100533.84
2017-06-24T09:39:15.923Z,100528.34
2017-06-24T09:41:44.299Z,100528.87
2017-06-24T09:44:13.265Z,100527.36
2017-06-24T09:46:41.651Z,100531.90
2017-06-24T09:49:10.043Z,100525.70
2017-06-24T09:51:38.764Z,100526.85
2017-06-24T09:54:07.731Z,100524.76
2017-06-24T09:56:36.115Z,100519.61
2017-06-24T09:59:04.495Z,100523.03
2017-06-24T10:01:33.203Z,100517.38
2017-06-24T10:04:01.625Z,100523.58
2017-06-24T10:06:30.016Z,100527.78
2017-06-24T10:08:58.400Z,100518.13
2017-06-24T10:11:26.907Z,100513.16
2017-06-24T10:13:55.609Z,100519.08
2017-06-24T10:16:24.383Z,100519.34
2017-06-24T10:18:52.774Z,100524.53
2017-06-24T10:21:21.548Z,100519.42
2017-06-24T10:23:49.951Z,100510.11
2017-06-24T10:26:18.771Z,100512.02
2017-06-24T10:28:47.170Z,100511.86
2017-06-24T10:31:15.555Z,100510.05
2017-06-24T10:33:44.164Z,100511.67
2017-06-24T10:36:12.544Z,100507.27
2017-06-24T10:38:40.925Z,100508.56
2017-06-24T10:41:09.319Z,100501.03
2017-06-24T10:43:38.100Z,100503.16
2017-06-24T10:46:07.287Z,100502.31
2017-06-24T10:48:35.674Z,100503.17
2017-06-24T10:51:04.055Z,100503.84
2017-06-24T10:53:32.536Z,100511.30
2017-06-24T10:56:00.919Z,100513.95
2017-06-24T10:58:29.713Z,100502.65
2017-06-24T11:00:58.501Z,100500.34
2017-06-24T11:03:27.396Z,100500.42
2017-06-24T11:05:56.179Z,100498.53
2017-06-24T11:08:24.956Z,100502.05
2017-06-24T11:10:53.768Z,100500.34
2017-06-24T11:13:22.547Z,100497.53
2017-06-24T11:15:51.380Z,100503.64
2017-06-24T11:18:19.765Z,100504.83
2017-06-24T11:20:48.155Z,100509.28
2017-06-24T11:23:16.536Z,100500.56
2017-06-24T11:25:45.132Z,100504.41
2017-06-24T11:28:13.516Z,100498.45
2017-06-24T11:30:41.904Z,100496.17
2017-06-24T11:33:10.299Z,100507.64
2017-06-24T11:35:38.683Z,100506.55
2017-06-24T11:38:07.484Z,100513.33
2017-06-24T11:40:36.264Z,100529.27
2017-06-24T11:43:05.096Z,100520.38
2017-06-24T11:45:33.483Z,100518.41
2017-06-24T11:48:01.879Z,100511.74
2017-06-24T11:50:30.264Z,100508.67
2017-06-24T11:52:58.823Z,100504.41
2017-06-24T11:55:27.212Z,100514.48
2017-06-24T11:57:55.651Z,100519.34
2017-06-24T12:00:24.852Z,100520.41
2017-06-24T12:02:53.235Z,100527.12
2017-06-24T12:05:21.647Z,100510.58
2017-06-24T12:07:50.044Z,100512.97
2017-06-24T12:10:18.643Z,100527.41
2017-06-24T12:12:47.023Z,100521.95
2017-06-24T12:15:15.395Z,100515.14
2017-06-24T12:17:43.979Z,100517.94
2017-06-24T12:20:12.355Z,100520.03
2017-06-24T12:22:40.731Z,100520.28
2017-06-24T12:25:09.343Z,100514.47
2017-06-24T12:27:37.723Z,100515.70
2017-06-24T12:30:06.103Z,100513.69
2017-06-24T12:32:34.679Z,100497.55
2017-06-24T12:35:03.063Z,100507.32
2017-06-24T12:37:31.440Z,100503.11
2017-06-24T12:40:00.127Z,100497.70
2017-06-24T12:42:28.831Z,100505.37
2017-06-24T12:44:57.704Z,100503.59
2017-06-24T12:47:26.287Z,100501.66
2017-06-24T12:49:54.663Z,100500.23
2017-06-24T12:52:23.039Z,100496.89
2017-06-24T12:54:51.699Z,100489.10
2017-06-24T12:57:20.079Z,100495.56
2017-06-24T12:59:49.400Z,100487.36
2017-06-24T13:02:18.215Z,100490.46
2017-06-24T13:04:47.091Z,100487.17
2017-06-24T13:07:15.475Z,100480.99
2017-06-24T13:09:44.164Z,100478.94
2017-06-24T13:12:12.772Z,100480.45
2017-06-24T13:14:41.549Z,100470.83
2017-06-24T13:17:10.633Z,100472.38
2017-06-24T13:19:39.472Z,100474.83
2017-06-24T13:22:07.907Z,100474.16
2017-06-24T13:24:36.472Z,100468.93
2017-06-24T13:27:04.856Z,100463.80
2017-06-24T13:29:33.247Z,100459.44
2017-06-24T13:32:02.036Z,100458.64
2017-06-24T13:34:30.445Z,100462.08
2017-06-24T13:36:58.855Z,100454.09
2017-06-24T13:39:27.484Z,100456.34
2017-06-24T13:41:55.875Z,100450.70
2017-06-24T13:44:24.678Z,100443.16
2017-06-24T13:46:53.700Z,100444.49
2017-06-24T13:49:22.076Z,100446.98
2017-06-24T13:51:50.457Z,100445.12
2017-06-24T13:54:19.092Z,100443.06
2017-06-24T13:56:47.471Z,100450.89
2017-06-24T13:59:15.851Z,100455.83
2017-06-24T14:01:44.852Z,100452.50
2017-06-24T14:04:13.229Z,100456.16
2017-06-24T14:06:41.610Z,100449.20
2017-06-24T14:09:10.327Z,100448.29
2017-06-24T14:11:38.708Z,100444.30
2017-06-24T14:14:07.105Z,100442.58
2017-06-24T14:16:35.840Z,100446.70
2017-06-24T14:19:04.894Z,100439.14
2017-06-24T14:21:33.271Z,100448.88
2017-06-24T14:24:01.904Z,100453.89
2017-06-24T14:26:30.279Z,100452.38
2017-06-24T14:28:58.672Z,100451.63
2017-06-24T14:31:27.732Z,100451.77
2017-06-24T14:33:56.113Z,100453.31
2017-06-24T14:36:24.492Z,100450.03
2017-06-24T14:38:53.187Z,100454.34
2017-06-24T14:41:21.581Z,100456.30
2017-06-24T14:43:49.959Z,100452.61
2017-06-24T14:46:18.749Z,100442.73
2017-06-24T14:48:47.132Z,100446.73
2017-06-24T14:51:15.503Z,100452.88
2017-06-24T14:53:44.095Z,100449.75
2017-06-24T14:56:12.472Z,100452.14
2017-06-24T14:58:40.848Z,100443.99
2017-06-24T15:01:09.597Z,100452.92
2017-06-24T15:03:38.212Z,100444.94
2017-06-24T15:06:06.594Z,100449.52
2017-06-24T15:08:35.192Z,100446.45
2017-06-24T15:11:04.408Z,100441.28
2017-06-24T15:13:33.179Z,100445.27
2017-06-24T15:16:01.764Z,100434.67
2017-06-24T15:18:30.248Z,100442.13
2017-06-24T15:20:58.623Z,100446.23
2017-06-24T15:23:27.416Z,100443.19
2017-06-24T15:25:55.799Z,100452.85
2017-06-24T15:28:24.176Z,100443.41
2017-06-24T15:30:52.965Z,100455.49
2017-06-24T15:33:21.339Z,100446.81
2017-06-24T15:35:49.715Z,100457.95
2017-06-24T15:38:18.409Z,100450.41
2017-06-24T15:40:46.891Z,100458.59
2017-06-24T15:43:15.273Z,100448.03
2017-06-24T15:45:44.784Z,100453.17
2017-06-24T15:48:13.159Z,100454.39
2017-06-24T15:50:41.535Z,100456.69
2017-06-24T15:53:10.323Z,100463.95
2017-06-24T15:55:38.700Z,100459.56
2017-06-24T15:58:07.076Z,100453.03
2017-06-24T16:00:35.772Z,100445.65
2017-06-24T16:03:04.164Z,100451.33
2017-06-24T16:05:33.232Z,100455.58
2017-06-24T16:08:01.924Z,100451.06
2017-06-24T16:10:30.299Z,100441.83
2017-06-24T16:12:58.919Z,100447.02
2017-06-24T16:15:28.039Z,100446.08
2017-06-24T16:17:56.439Z,100442.09
2017-06-24T16:20:25.080Z,100450.83
2017-06-24T16:22:54.156Z,100449.99
2017-06-24T16:25:22.531Z,100449.28
2017-06-24T16:27:51.181Z,100443.77
2017-06-24T16:30:19.811Z,100446.47
2017-06-24T16:32:48.189Z,100450.36
2017-06-24T16:35:16.619Z,100450.60
2017-06-24T16:37:45.252Z,100449.03
2017-06-24T16:40:13.634Z,100452.94
2017-06-24T16:42:42.016Z,100455.53
2017-06-24T16:45:10.592Z,100452.31
2017-06-24T16:47:38.968Z,100449.34
2017-06-24T16:50:07.584Z,100453.79
2017-06-24T16:52:36.555Z,100443.78
2017-06-24T16:55:04.932Z,100450.45
2017-06-24T16:57:33.307Z,100457.87
2017-06-24T17:00:02.099Z,100457.70
2017-06-24T17:02:30.494Z,100461.04
2017-06-24T17:04:58.870Z,100468.83
2017-06-24T17:07:27.757Z,100456.52
2017-06-24T17:09:56.160Z,100455.31
2017-06-24T17:12:24.539Z,100463.22
2017-06-24T17:14:53.511Z,100462.09
2017-06-24T17:17:22.520Z,100465.47
2017-06-24T17:19:51.519Z,100467.58
2017-06-24T17:22:20.691Z,100468.05
2017-06-24T17:24:49.067Z,100463.63
2017-06-24T17:27:17.439Z,100460.49
2017-06-24T17:29:45.991Z,100454.37
2017-06-24T17:32:14.377Z,100457.44
2017-06-24T17:34:42.767Z,100456.89
2017-06-24T17:37:11.388Z,100457.05
2017-06-24T17:39:39.760Z,100464.52
2017-06-24T17:42:08.139Z,100459.05
2017-06-24T17:44:36.728Z,100466.53
2017-06-24T17:47:05.436Z,100465.41
2017-06-24T17:49:34.212Z,100469.50
2017-06-24T17:52:03.205Z,100467.64
2017-06-24T17:54:31.588Z,100471.20
2017-06-24T17:57:00.387Z,100467.51
2017-06-24T17:59:29.688Z,100473.41
2017-06-24T18:01:58.478Z,100473.94
2017-06-24T18:04:27.259Z,100470.00
2017-06-24T18:06:56.379Z,100471.78
2017-06-24T18:09:25.011Z,100478.95
2017-06-24T18:11:53.413Z,100477.55
2017-06-24T18:14:22.196Z,100483.39
2017-06-24T18:16:50.572Z,100476.30
2017-06-24T18:19:18.947Z,100482.72
2017-06-24T18:21:47.870Z,100480.28
2017-06-24T18:24:45.716Z,100483.18
2017-06-24T18:27:14.308Z,100479.33
2017-06-24T18:29:42.688Z,100476.36
2017-06-24T18:32:11.069Z,100478.65
2017-06-24T18:34:39.747Z,100470.59
2017-06-24T18:37:08.123Z,100484.64
2017-06-24T18:39:36.736Z,100487.05
2017-06-24T18:42:05.812Z,100491.69
2017-06-24T18:44:34.294Z,100484.14
2017-06-24T18:47:02.673Z,100486.67
2017-06-24T18:49:31.261Z,100491.29
2017-06-24T18:51:59.639Z,100496.53
2017-06-24T18:54:28.025Z,100492.45
2017-06-24T18:56:57.225Z,100493.22
2017-06-24T18:59:26.002Z,100487.06
2017-06-24T19:01:54.385Z,100486.84
2017-06-24T19:04:23.070Z,100492.19
2017-06-24T19:06:51.504Z,100493.02
2017-06-24T19:09:20.116Z,100492.20
2017-06-24T19:11:49.032Z,100498.60
2017-06-24T19:14:17.408Z,100494.65
2017-06-24T19:16:45.795Z,100497.56
2017-06-24T19:19:14.516Z,100499.98
2017-06-24T19:21:43.184Z,100496.53
2017-06-24T19:24:12.281Z,100498.46
2017-06-24T19:26:41.304Z,100498.48
2017-06-24T19:29:09.689Z,100503.56
2017-06-24T19:31:38.076Z,100503.36
2017-06-24T19:34:06.776Z,100502.21
2017-06-24T19:36:35.156Z,100496.23
2017-06-24T19:39:03.560Z,100503.48
2017-06-24T19:41:32.147Z,100505.36
2017-06-24T19:44:00.532Z,100502.76
2017-06-24T19:46:28.911Z,100506.16
2017-06-24T19:48:57.720Z,100507.44
2017-06-24T19:51:26.091Z,100512.52
2017-06-24T19:53:54.863Z,100521.62
2017-06-24T19:56:23.501Z,100514.56
2017-06-24T19:58:51.880Z,100515.94
2017-06-24T20:01:20.260Z,100517.44
2017-06-24T20:03:49.224Z,100512.95
2017-06-24T20:06:17.603Z,100522.69
2017-06-24T20:08:46.387Z,100520.56
2017-06-24T20:11:15.363Z,100525.98
2017-06-24T20:13:44.039Z,100518.69
2017-06-24T20:16:12.407Z,100515.83
2017-06-24T20:18:41.219Z,100517.95
2017-06-24T20:21:09.604Z,100511.92
2017-06-24T20:23:37.984Z,100516.61
2017-06-24T20:26:06.664Z,100510.06
2017-06-24T20:28:35.044Z,100509.02
2017-06-24T20:31:03.422Z,100503.88
2017-06-24T20:33:32.339Z,100505.37
2017-06-24T20:36:01.115Z,100499.95
2017-06-24T20:38:29.883Z,100496.48
2017-06-24T20:40:58.598Z,100500.43
2017-06-24T20:43:27.371Z,100495.66
2017-06-24T20:45:55.747Z,100500.34
2017-06-24T20:48:24.330Z,100507.55
2017-06-24T20:50:52.809Z,100508.61
2017-06-24T20:53:21.189Z,100506.66
2017-06-24T20:55:49.907Z,100506.47
2017-06-24T20:58:18.999Z,100511.17
2017-06-24T21:00:47.376Z,100508.67
2017-06-24T21:03:16.342Z,100502.91
2017-06-24T21:05:44.729Z,100508.44
2017-06-24T21:08:13.107Z,100509.98
2017-06-24T21:10:41.840Z,100506.85
2017-06-24T21:13:10.286Z,100510.34
2017-06-24T21:15:38.947Z,100508.86
2017-06-24T21:18:07.644Z,100509.42
2017-06-24T21:20:36.022Z,100510.63
2017-06-24T21:23:04.396Z,100503.47
2017-06-24T21:25:33.212Z,100504.03
2017-06-24T21:28:01.991Z,100503.08
2017-06-24T21:30:30.370Z,100509.03
2017-06-24T21:32:58.956Z,100507.39
2017-06-24T21:35:27.360Z,100512.81
2017-06-24T21:37:56.135Z,100511.73
2017-06-24T21:40:25.224Z,100519.98
2017-06-24T21:42:53.596Z,100510.38
2017-06-24T21:45:22.034Z,100514.42
2017-06-24T21:47:50.663Z,100516.00
2017-06-24T21:50:19.040Z,100515.52
2017-06-24T21:52:47.531Z,100512.81
2017-06-24T21:55:16.167Z,100515.74
2017-06-24T21:57:44.549Z,100515.61
2017-06-24T22:00:12.928Z,100515.67
2017-06-24T22:02:41.665Z,100517.75
2017-06-24T22:05:10.037Z,100515.61
2017-06-24T22:07:38.748Z,100518.02
2017-06-24T22:10:07.722Z,100516.00
2017-06-24T22:12:36.100Z,100521.17
2017-06-24T22:15:04.478Z,100517.22
2017-06-24T22:17:33.371Z,100517.78
2017-06-24T22:20:01.745Z,100521.47
2017-06-24T22:22:30.120Z,100519.06
2017-06-24T22:24:58.716Z,100516.44
2017-06-24T22:27:27.095Z,100517.06
2017-06-24T22:29:55.475Z,100506.07
2017-06-24T22:32:24.189Z,100510.05
2017-06-24T22:34:52.963Z,100504.23
2017-06-24T22:37:21.739Z,100500.61
2017-06-24T22:39:50.324Z,100510.48
2017-06-24T22:42:18.726Z,100508.41
2017-06-24T22:44:47.500Z,100508.05
2017-06-24T22:47:16.087Z,100506.47
2017-06-24T22:49:44.863Z,100500.94
2017-06-24T22:52:13.247Z,100503.34
2017-06-24T22:54:41.933Z,100501.50
2017-06-24T22:57:10.319Z,100508.37
2017-06-24T22:59:39.019Z,100507.45
2017-06-24T23:02:07.694Z,100512.16
2017-06-24T23:04:36.073Z,100514.39
2017-06-24T23:07:04.771Z,100507.68
2017-06-24T23:09:33.876Z,100512.71
2017-06-24T23:12:02.647Z,100501.76
2017-06-24T23:14:31.015Z,100499.00
2017-06-24T23:16:59.699Z,100492.94
2017-06-24T23:19:28.721Z,100499.62
2017-06-24T23:21:57.504Z,100495.90
2017-06-24T23:24:26.592Z,100493.63
2017-06-24T23:26:54.970Z,100485.48
2017-06-24T23:29:23.448Z,100485.97
2017-06-24T23:31:52.027Z,100479.73
2017-06-24T23:34:20.404Z,100484.06
2017-06-24T23:36:48.872Z,100476.05
2017-06-24T23:39:17.471Z,100474.47
2017-06-24T23:41:46.147Z,100469.86
2017-06-24T23:44:14.647Z,100479.23
2017-06-24T23:46:43.433Z,100472.85
2017-06-24T23:49:11.809Z,100468.88
2017-06-24T23:51:40.186Z,100469.80
2017-06-24T23:54:08.834Z,100474.03
2017-06-24T23:56:37.255Z,100474.66
2017-06-24T23:59:05.632Z,100476.00
